Time,TemperatureF,DewpointF,PressureIn,WindDirection,WindDirectionDegrees,WindSpeedMPH,WindSpeedGustMPH,Humidity,HourlyPrecipIn,Conditions,Clouds,dailyrainin,SoftwareType,DateUTC
2013-04-22 00:02:00,32.1,27.2,30.66,NE,41,0.0,2.0,82,0.00,,,0.00,VWS V13.01,2013-04-22 04:02:00,
2013-04-22 00:32:00,31.5,26.9,30.66,NE,40,0.0,1.0,83,0.00,,,0.00,VWS V13.01,2013-04-22 04:32:00,
2013-04-22 01:00:00,32.1,27.2,30.66,NE,41,0.0,2.0,82,0.00,,,0.00,VWS V13.01,2013-04-22 05:00:00,
2013-04-22 01:02:00,31.0,26.7,30.66,NE,40,0.0,1.0,84,0.00,,,0.00,VWS V13.01,2013-04-22 05:02:00,
2013-04-22 01:30:00,31.5,26.9,30.66,NE,40,0.0,1.0,83,0.00,,,0.00,VWS V13.01,2013-04-22 05:30:00,
2013-04-22 02:00:00,31.0,26.7,30.66,NE,40,0.0,1.0,84,0.00,,,0.00,VWS V13.01,2013-04-22 06:00:00,
2013-04-22 02:30:00,31.1,26.5,30.66,NE,40,0.0,0.0,83,0.00,,,0.00,VWS V13.01,2013-04-22 06:30:00,
2013-04-22 03:00:00,30.3,26.1,30.66,NE,41,0.0,0.0,84,0.00,,,0.00,VWS V13.01,2013-04-22 07:00:00,
2013-04-22 03:30:00,30.0,25.8,30.67,NE,40,0.0,0.0,84,0.00,,,0.00,VWS V13.01,2013-04-22 07:30:00,
2013-04-22 04:00:00,29.6,25.4,30.68,NE,40,0.0,0.0,84,0.00,,,0.00,VWS V13.01,2013-04-22 08:00:00,
2013-04-22 04:30:00,29.4,25.2,30.69,NE,41,0.0,0.0,84,0.00,,,0.00,VWS V13.01,2013-04-22 08:30:00,
2013-04-22 05:00:00,29.0,24.8,30.69,NE,41,0.0,0.0,84,0.00,,,0.00,VWS V13.01,2013-04-22 09:00:00,
2013-04-22 05:30:00,28.9,24.4,30.70,NE,40,0.0,0.0,83,0.00,,,0.00,VWS V13.01,2013-04-22 09:30:00,
2013-04-22 06:00:00,29.0,24.5,30.70,NE,40,0.0,0.0,83,0.00,,,0.00,VWS V13.01,2013-04-22 10:00:00,
2013-04-22 06:30:00,28.5,24.0,30.71,North,0,0.0,0.0,83,0.00,,,0.00,VWS V13.01,2013-04-22 10:30:00,
2013-04-22 07:00:00,29.0,24.2,30.73,North,0,0.0,0.0,82,0.00,,,0.00,VWS V13.01,2013-04-22 11:00:00,
2013-04-22 07:15:00,31.8,27.2,30.75,North,0,0.0,0.0,83,0.00,,,0.00,VWS V13.01,2013-04-22 11:15:00,
2013-04-22 07:32:00,35.9,29.7,30.76,NE,40,0.0,0.0,78,0.00,,,0.00,VWS V13.01,2013-04-22 11:32:00,
2013-04-22 08:02:00,41.5,28.3,30.77,ESE,110,2.0,5.0,59,0.00,,,0.00,VWS V13.01,2013-04-22 12:02:00,
2013-04-22 08:32:00,42.1,27.1,30.77,East,99,1.0,11.0,55,0.00,,,0.00,VWS V13.01,2013-04-22 12:32:00,
2013-04-22 09:02:00,42.7,25.9,30.76,East,95,3.0,11.0,51,0.00,,,0.00,VWS V13.01,2013-04-22 13:02:00,
2013-04-22 09:32:00,43.5,25.1,30.75,East,95,1.0,13.0,48,0.00,,,0.00,VWS V13.01,2013-04-22 13:32:00,
2013-04-22 10:02:00,44.3,23.8,30.75,ESE,112,7.0,13.0,44,0.00,,,0.00,VWS V13.01,2013-04-22 14:02:00,
2013-04-22 10:32:00,45.3,25.8,30.76,East,101,6.0,12.0,46,0.00,,,0.00,VWS V13.01,2013-04-22 14:32:00,
2013-04-22 11:02:00,44.9,26.4,30.76,East,88,2.0,12.0,48,0.00,,,0.00,VWS V13.01,2013-04-22 15:02:00,
2013-04-22 11:32:00,45.2,23.5,30.77,SE,124,7.0,15.0,42,0.00,,,0.00,VWS V13.01,2013-04-22 15:32:00,
2013-04-22 12:02:00,45.4,26.4,30.77,SSE,150,7.0,18.0,47,0.00,,,0.00,VWS V13.01,2013-04-22 16:02:00,
2013-04-22 12:32:00,46.2,23.8,30.75,South,190,10.0,16.0,41,0.00,,,0.00,VWS V13.01,2013-04-22 16:32:00,
2013-04-22 13:02:00,46.0,28.4,30.73,SE,142,2.0,15.0,50,0.00,,,0.00,VWS V13.01,2013-04-22 17:02:00,
2013-04-22 13:32:00,46.4,31.1,30.72,SE,125,6.0,16.0,55,0.00,,,0.00,VWS V13.01,2013-04-22 17:32:00,
2013-04-22 14:02:00,46.9,31.1,30.72,East,97,3.0,16.0,54,0.00,,,0.00,VWS V13.01,2013-04-22 18:02:00,
2013-04-22 14:32:00,45.7,36.8,30.72,SSE,158,14.0,20.0,71,0.00,,,0.00,VWS V13.01,2013-04-22 18:32:00,
2013-04-22 15:02:00,45.8,36.2,30.72,South,184,3.0,18.0,69,0.00,,,0.00,VWS V13.01,2013-04-22 19:02:00,
2013-04-22 15:32:00,45.2,36.4,30.70,SSE,157,11.0,20.0,71,0.00,,,0.00,VWS V13.01,2013-04-22 19:32:00,
2013-04-22 16:02:00,45.4,36.9,30.69,SSE,148,9.0,19.0,72,0.00,,,0.00,VWS V13.01,2013-04-22 20:02:00,
2013-04-22 16:32:00,44.2,36.1,30.69,SE,130,7.0,18.0,73,0.00,,,0.00,VWS V13.01,2013-04-22 20:32:00,
2013-04-22 17:02:00,44.0,35.9,30.69,SE,128,9.0,15.0,73,0.00,,,0.00,VWS V13.01,2013-04-22 21:02:00,
2013-04-22 17:32:00,44.1,35.3,30.69,SE,134,12.0,17.0,71,0.00,,,0.00,VWS V13.01,2013-04-22 21:32:00,
2013-04-22 18:02:00,43.4,35.3,30.69,SSE,158,1.0,13.0,73,0.00,,,0.00,VWS V13.01,2013-04-22 22:02:00,
2013-04-22 18:32:00,43.2,33.0,30.68,South,173,3.0,10.0,67,0.00,,,0.00,VWS V13.01,2013-04-22 22:32:00,
2013-04-22 19:02:00,42.6,32.8,30.68,South,184,1.0,7.0,68,0.00,,,0.00,VWS V13.01,2013-04-22 23:02:00,
2013-04-22 19:32:00,41.8,32.4,30.68,SSE,163,3.0,5.0,69,0.00,,,0.00,VWS V13.01,2013-04-22 23:32:00,
2013-04-22 20:02:00,40.8,33.2,30.68,SSE,163,1.0,3.0,74,0.00,,,0.00,VWS V13.01,2013-04-23 00:02:00,
2013-04-22 20:32:00,39.7,33.1,30.68,SSE,163,0.0,1.0,77,0.00,,,0.00,VWS V13.01,2013-04-23 00:32:00,
2013-04-22 21:02:00,39.2,32.6,30.68,SSE,163,0.0,3.0,77,0.00,,,0.00,VWS V13.01,2013-04-23 01:02:00,
2013-04-22 21:32:00,38.7,32.8,30.68,SSE,163,0.0,1.0,79,0.00,,,0.00,VWS V13.01,2013-04-23 01:32:00,
2013-04-22 22:02:00,35.9,31.0,30.67,SSE,163,0.0,0.0,82,0.00,,,0.00,VWS V13.01,2013-04-23 02:02:00,
2013-04-22 22:32:00,35.0,30.4,30.66,SSE,163,0.0,0.0,83,0.00,,,0.00,VWS V13.01,2013-04-23 02:32:00,
2013-04-22 23:02:00,34.0,29.4,30.65,SSE,163,0.0,0.0,83,0.00,,,0.00,VWS V13.01,2013-04-23 03:02:00,
2013-04-22 23:32:00,33.2,28.3,30.64,SSE,163,0.0,0.0,82,0.00,,,0.00,VWS V13.01,2013-04-23 03:32:00,